createdAt,value
2018-10-19T00:00:20.869Z,12.62
2018-10-19T00:01:26.899Z,12.60
2018-10-19T00:02:32.994Z,12.64
2018-10-19T00:03:39.407Z,12.65
2018-10-19T00:04:45.728Z,12.62
2018-10-19T00:05:51.825Z,12.62
2018-10-19T00:06:58.310Z,12.62
2018-10-19T00:08:03.930Z,12.62
2018-10-19T00:09:09.666Z,12.62
2018-10-19T00:10:16.841Z,12.63
2018-10-19T00:11:22.570Z,12.63
2018-10-19T00:12:28.604Z,12.64
2018-10-19T00:13:34.650Z,12.66
2018-10-19T00:14:40.780Z,12.63
2018-10-19T00:15:47.808Z,12.64
2018-10-19T00:16:53.580Z,12.63
2018-10-19T00:17:59.924Z,12.66
2018-10-19T00:19:05.824Z,12.67
2018-10-19T00:20:11.923Z,12.65
2018-10-19T00:21:18.011Z,12.64
2018-10-19T00:22:24.101Z,12.56
2018-10-19T00:23:29.998Z,12.56
2018-10-19T00:24:36.342Z,12.55
2018-10-19T00:25:42.451Z,12.54
2018-10-19T00:26:48.562Z,12.55
2018-10-19T00:27:54.989Z,12.54
2018-10-19T00:29:01.447Z,12.57
2018-10-19T00:30:06.991Z,12.54
2018-10-19T00:31:13.126Z,12.57
2018-10-19T00:32:19.412Z,12.58
2018-10-19T00:33:25.703Z,12.56
2018-10-19T00:34:32.034Z,12.54
2018-10-19T00:35:38.118Z,12.52
2018-10-19T00:36:44.266Z,12.50
2018-10-19T00:37:50.888Z,12.54
2018-10-19T00:38:57.203Z,12.54
2018-10-19T00:40:03.328Z,12.52
2018-10-19T00:41:09.294Z,12.53
2018-10-19T00:42:15.647Z,12.51
2018-10-19T00:43:22.037Z,12.49
2018-10-19T00:44:28.448Z,12.51
2018-10-19T00:45:34.181Z,12.49
2018-10-19T00:46:40.137Z,12.48
2018-10-19T00:47:46.558Z,12.47
2018-10-19T00:48:52.855Z,12.46
2018-10-19T00:49:58.951Z,12.46
2018-10-19T00:51:04.412Z,12.49
2018-10-19T00:52:10.669Z,12.49
2018-10-19T00:53:17.094Z,12.47
2018-10-19T00:54:23.382Z,12.45
2018-10-19T00:55:29.621Z,12.44
2018-10-19T00:56:35.702Z,12.44
2018-10-19T00:57:41.827Z,12.43
2018-10-19T00:58:48.219Z,12.45
2018-10-19T00:59:53.982Z,12.50
2018-10-19T01:01:00.032Z,12.44
2018-10-19T01:02:05.824Z,12.46
2018-10-19T01:03:11.921Z,12.46
2018-10-19T01:04:18.542Z,12.41
2018-10-19T01:05:24.654Z,12.41
2018-10-19T01:06:30.773Z,12.35
2018-10-19T01:07:36.865Z,12.34
2018-10-19T01:08:42.869Z,12.35
2018-10-19T01:09:48.904Z,12.34
2018-10-19T01:10:55.061Z,12.36
2018-10-19T01:12:01.306Z,12.33
2018-10-19T01:13:07.195Z,12.33
2018-10-19T01:14:13.230Z,12.31
2018-10-19T01:15:19.342Z,12.28
2018-10-19T01:16:25.438Z,12.29
2018-10-19T01:17:31.530Z,12.27
2018-10-19T01:18:37.937Z,12.28
2018-10-19T01:19:44.006Z,12.28
2018-10-19T01:20:50.075Z,12.26
2018-10-19T01:21:56.161Z,12.25
2018-10-19T01:23:02.192Z,12.25
2018-10-19T01:24:08.684Z,12.24
2018-10-19T01:25:14.454Z,12.24
2018-10-19T01:26:19.793Z,12.23
2018-10-19T01:27:25.882Z,12.28
2018-10-19T01:28:32.011Z,12.26
2018-10-19T01:29:37.875Z,12.22
2018-10-19T01:30:43.995Z,12.22
2018-10-19T01:31:50.008Z,12.26
2018-10-19T01:32:56.172Z,12.25
2018-10-19T01:34:02.601Z,12.25
2018-10-19T01:35:07.940Z,12.33
2018-10-19T01:36:14.077Z,12.29
2018-10-19T01:37:20.003Z,12.29
2018-10-19T01:38:25.996Z,12.32
2018-10-19T01:39:32.242Z,12.24
2018-10-19T01:40:38.351Z,12.12
2018-10-19T01:41:44.458Z,12.04
2018-10-19T01:42:50.773Z,12.12
2018-10-19T01:43:57.134Z,12.12
2018-10-19T01:45:03.279Z,12.12
2018-10-19T01:46:09.635Z,12.02
2018-10-19T01:47:15.793Z,12.00
2018-10-19T01:48:21.358Z,12.02
2018-10-19T01:49:28.027Z,12.09
2018-10-19T01:50:34.137Z,11.94
2018-10-19T01:51:40.146Z,11.89
2018-10-19T01:52:46.462Z,11.90
2018-10-19T01:53:52.906Z,11.79
2018-10-19T01:54:59.117Z,11.77
2018-10-19T01:56:04.821Z,11.77
2018-10-19T01:57:11.163Z,11.77
2018-10-19T01:58:17.684Z,11.83
2018-10-19T01:59:23.965Z,11.82
2018-10-19T02:00:29.938Z,11.75
2018-10-19T02:01:35.908Z,11.72
2018-10-19T02:02:41.870Z,11.75
2018-10-19T02:03:48.173Z,11.74
2018-10-19T02:04:54.190Z,11.64
2018-10-19T02:06:00.458Z,11.60
2018-10-19T02:07:06.197Z,11.53
2018-10-19T02:08:12.275Z,11.43
2018-10-19T02:09:18.538Z,11.44
2018-10-19T02:10:25.407Z,11.41
2018-10-19T02:11:31.553Z,11.40
2018-10-19T02:12:37.726Z,11.33
2018-10-19T02:13:43.766Z,11.29
2018-10-19T02:14:49.988Z,11.28
2018-10-19T02:15:56.019Z,11.29
2018-10-19T02:17:01.755Z,11.27
2018-10-19T02:18:08.184Z,11.26
2018-10-19T02:19:14.474Z,11.29
2018-10-19T02:20:20.428Z,11.31
2018-10-19T02:21:26.386Z,11.24
2018-10-19T02:22:32.349Z,11.21
2018-10-19T02:23:38.326Z,11.19
2018-10-19T02:24:44.638Z,11.18
2018-10-19T02:25:50.620Z,11.20
2018-10-19T02:26:56.602Z,11.24
2018-10-19T02:28:03.050Z,11.20
2018-10-19T02:29:09.605Z,11.21
2018-10-19T02:30:15.842Z,11.27
2018-10-19T02:31:21.950Z,11.24
2018-10-19T02:32:28.060Z,11.12
2018-10-19T02:33:33.793Z,11.04
2018-10-19T02:34:39.415Z,11.08
2018-10-19T02:35:45.366Z,11.11
2018-10-19T02:36:50.977Z,11.24
2018-10-19T02:37:57.297Z,11.25
2018-10-19T02:39:03.332Z,11.26
2018-10-19T02:40:09.591Z,11.23
2018-10-19T02:41:15.896Z,11.42
2018-10-19T02:42:22.112Z,11.30
2018-10-19T02:43:28.507Z,11.28
2018-10-19T02:44:35.266Z,11.33
2018-10-19T02:45:41.363Z,11.24
2018-10-19T02:46:47.080Z,11.11
2018-10-19T02:47:53.578Z,10.95
2018-10-19T02:48:59.904Z,10.96
2018-10-19T02:50:05.376Z,10.95
2018-10-19T02:51:11.549Z,10.89
2018-10-19T02:52:17.959Z,10.81
2018-10-19T02:53:24.418Z,10.86
2018-10-19T02:54:30.922Z,10.86
2018-10-19T02:55:37.039Z,10.80
2018-10-19T02:56:44.287Z,10.84
2018-10-19T02:57:51.568Z,10.79
2018-10-19T02:58:58.020Z,10.72
2018-10-19T03:00:03.619Z,10.76
2018-10-19T03:01:09.978Z,10.75
2018-10-19T03:02:16.260Z,10.69
2018-10-19T03:03:22.786Z,10.76
2018-10-19T03:04:29.234Z,10.71
2018-10-19T03:05:35.221Z,10.64
2018-10-19T03:06:41.127Z,10.61
2018-10-19T03:07:47.061Z,10.61
2018-10-19T03:08:53.070Z,10.59
2018-10-19T03:09:59.288Z,10.57
2018-10-19T03:11:05.048Z,10.56
2018-10-19T03:12:13.790Z,10.57
2018-10-19T03:13:20.610Z,10.58
2018-10-19T03:14:26.941Z,10.55
2018-10-19T03:15:33.025Z,10.55
2018-10-19T03:16:39.061Z,10.53
2018-10-19T03:17:45.284Z,10.59
2018-10-19T03:18:51.563Z,10.58
2018-10-19T03:19:57.206Z,10.55
2018-10-19T03:21:03.188Z,10.50
2018-10-19T03:22:09.335Z,10.60
2018-10-19T03:23:15.672Z,10.49
2018-10-19T03:24:22.827Z,10.47
2018-10-19T03:25:30.197Z,10.47
2018-10-19T03:26:37.811Z,10.46
2018-10-19T03:27:45.658Z,10.46
2018-10-19T03:28:52.765Z,10.48
2018-10-19T03:29:58.864Z,10.45
2018-10-19T03:31:04.844Z,10.49
2018-10-19T03:32:11.087Z,10.48
2018-10-19T03:33:17.376Z,10.45
2018-10-19T03:34:23.910Z,10.42
2018-10-19T03:35:29.982Z,10.46
2018-10-19T03:36:36.123Z,10.45
2018-10-19T03:37:42.355Z,10.46
2018-10-19T03:38:48.700Z,10.50
2018-10-19T03:39:54.707Z,10.52
2018-10-19T03:41:00.818Z,10.49
2018-10-19T03:42:06.434Z,10.48
2018-10-19T03:43:12.968Z,10.50
2018-10-19T03:44:19.237Z,10.63
2018-10-19T03:45:25.378Z,10.70
2018-10-19T03:46:31.507Z,10.60
2018-10-19T03:47:37.659Z,10.65
2018-10-19T03:48:44.006Z,10.72
2018-10-19T03:49:50.233Z,10.70
2018-10-19T03:50:56.334Z,10.68
2018-10-19T03:52:02.433Z,10.67
2018-10-19T03:53:08.806Z,10.64
2018-10-19T03:54:15.009Z,10.64
2018-10-19T03:55:20.990Z,10.79
2018-10-19T03:56:27.055Z,10.63
2018-10-19T03:57:33.157Z,10.58
2018-10-19T03:58:39.574Z,10.56
2018-10-19T03:59:45.860Z,10.56
2018-10-19T04:00:51.970Z,10.62
2018-10-19T04:01:58.078Z,10.67
2018-10-19T04:03:03.902Z,10.70
2018-10-19T04:04:10.365Z,10.72
2018-10-19T04:05:16.593Z,10.61
2018-10-19T04:06:22.477Z,10.47
2018-10-19T04:07:28.498Z,10.34
2018-10-19T04:08:34.870Z,10.31
2018-10-19T04:09:41.244Z,10.38
2018-10-19T04:10:47.369Z,10.27
2018-10-19T04:11:53.458Z,10.31
2018-10-19T04:12:59.578Z,10.40
2018-10-19T04:14:05.625Z,10.34
2018-10-19T04:15:12.548Z,10.34
2018-10-19T04:16:18.751Z,10.30
2018-10-19T04:17:24.811Z,10.21
2018-10-19T04:18:31.370Z,10.34
2018-10-19T04:19:39.951Z,10.23
2018-10-19T04:20:47.176Z,10.15
2018-10-19T04:21:53.271Z,10.14
2018-10-19T04:22:59.475Z,10.14
2018-10-19T04:24:04.887Z,10.08
2018-10-19T04:25:11.011Z,10.00
2018-10-19T04:26:16.978Z,9.97
2018-10-19T04:27:22.957Z,10.06
2018-10-19T04:28:29.275Z,9.98
2018-10-19T04:29:35.542Z,9.95
2018-10-19T04:30:41.505Z,10.02
2018-10-19T04:31:47.498Z,10.19
2018-10-19T04:32:53.657Z,10.15
2018-10-19T04:34:00.039Z,10.10
2018-10-19T04:35:06.074Z,10.21
2018-10-19T04:36:12.343Z,10.11
2018-10-19T04:37:18.392Z,9.91
2018-10-19T04:38:24.369Z,9.84
2018-10-19T04:39:30.626Z,9.84
2018-10-19T04:40:36.609Z,9.81
2018-10-19T04:41:42.587Z,9.83
2018-10-19T04:42:48.958Z,9.81
2018-10-19T04:43:54.887Z,9.83
2018-10-19T04:45:00.868Z,9.80
2018-10-19T04:46:06.880Z,9.86
2018-10-19T04:47:12.906Z,10.04
2018-10-19T04:48:19.193Z,9.94
2018-10-19T04:49:25.309Z,9.91
2018-10-19T04:50:31.400Z,9.88
2018-10-19T04:51:37.502Z,9.87
2018-10-19T04:52:43.813Z,9.91
2018-10-19T04:53:49.976Z,9.88
2018-10-19T04:54:56.463Z,9.83
2018-10-19T04:56:03.745Z,9.86
2018-10-19T04:57:09.836Z,9.82
2018-10-19T04:58:16.409Z,9.82
2018-10-19T04:59:22.832Z,9.81
2018-10-19T05:00:28.934Z,9.89
2018-10-19T05:01:35.077Z,9.90
2018-10-19T05:02:41.164Z,9.96
2018-10-19T05:03:47.335Z,9.83
2018-10-19T05:04:53.401Z,9.88
2018-10-19T05:05:59.773Z,9.88
2018-10-19T05:07:05.865Z,9.84
2018-10-19T05:08:11.716Z,9.79
2018-10-19T05:09:18.013Z,9.67
2018-10-19T05:10:23.916Z,9.64
2018-10-19T05:11:29.855Z,9.60
2018-10-19T05:12:35.796Z,9.58
2018-10-19T05:13:42.167Z,9.57
2018-10-19T05:14:48.109Z,9.55
2018-10-19T05:15:54.027Z,9.59
2018-10-19T05:17:00.015Z,9.62
2018-10-19T05:18:05.898Z,9.57
2018-10-19T05:19:11.866Z,9.50
2018-10-19T05:20:17.887Z,9.63
2018-10-19T05:21:23.941Z,9.64
2018-10-19T05:22:29.926Z,9.60
2018-10-19T05:23:36.163Z,9.56
2018-10-19T05:24:42.245Z,9.50
2018-10-19T05:25:48.844Z,9.43
2018-10-19T05:26:55.052Z,9.41
2018-10-19T05:28:01.447Z,9.37
2018-10-19T05:29:07.526Z,9.34
2018-10-19T05:30:13.694Z,9.38
2018-10-19T05:31:19.635Z,9.32
2018-10-19T05:32:25.723Z,9.31
2018-10-19T05:33:31.673Z,9.30
2018-10-19T05:34:37.625Z,9.22
2018-10-19T05:35:43.549Z,9.24
2018-10-19T05:36:49.469Z,9.19
2018-10-19T05:37:55.427Z,9.17
2018-10-19T05:39:01.517Z,9.12
2018-10-19T05:40:08.412Z,9.12
2018-10-19T05:41:14.310Z,9.16
2018-10-19T05:42:20.489Z,9.26
2018-10-19T05:43:26.705Z,9.30
2018-10-19T05:44:33.094Z,9.25
2018-10-19T05:45:38.998Z,9.21
2018-10-19T05:46:44.933Z,9.20
2018-10-19T05:47:50.900Z,9.27
2018-10-19T05:48:56.818Z,9.19
2018-10-19T05:50:02.773Z,9.15
2018-10-19T05:51:08.911Z,9.14
2018-10-19T05:52:14.862Z,9.08
2018-10-19T05:53:20.987Z,9.08
2018-10-19T05:54:26.918Z,9.06
2018-10-19T05:55:32.818Z,9.10
2018-10-19T05:56:38.728Z,9.18
2018-10-19T05:57:44.658Z,9.15
2018-10-19T05:58:50.572Z,9.11
2018-10-19T06:00:00.889Z,9.12
2018-10-19T06:01:06.129Z,9.08
2018-10-19T06:02:12.104Z,9.03
2018-10-19T06:03:18.196Z,9.03
2018-10-19T06:04:24.393Z,9.00
2018-10-19T06:05:30.340Z,8.97
2018-10-19T06:06:36.251Z,8.97
2018-10-19T06:07:42.181Z,8.97
2018-10-19T06:08:48.109Z,8.99
2018-10-19T06:09:54.055Z,9.02
2018-10-19T06:10:59.995Z,9.02
2018-10-19T06:12:05.395Z,8.98
2018-10-19T06:13:11.309Z,9.01
2018-10-19T06:14:17.221Z,9.05
2018-10-19T06:15:23.155Z,9.05
2018-10-19T06:16:29.092Z,9.10
2018-10-19T06:17:34.989Z,9.14
2018-10-19T06:18:40.933Z,9.14
2018-10-19T06:19:46.913Z,9.11
2018-10-19T06:20:54.295Z,9.13
2018-10-19T06:22:05.392Z,9.16
2018-10-19T06:23:11.402Z,9.19
2018-10-19T06:24:17.467Z,9.14
2018-10-19T06:25:23.412Z,9.18
2018-10-19T06:26:29.056Z,9.14
2018-10-19T06:27:35.149Z,9.34
2018-10-19T06:28:41.065Z,9.27
2018-10-19T06:29:47.009Z,9.27
2018-10-19T06:30:52.544Z,9.29
2018-10-19T06:31:58.095Z,9.29
2018-10-19T06:33:04.023Z,9.30
2018-10-19T06:34:09.977Z,9.27
2018-10-19T06:35:16.007Z,9.32
2018-10-19T06:36:22.055Z,9.30
2018-10-19T06:37:27.957Z,9.30
2018-10-19T06:38:33.868Z,9.27
2018-10-19T06:39:39.797Z,9.28
2018-10-19T06:40:45.828Z,9.21
2018-10-19T06:41:51.854Z,9.15
2018-10-19T06:42:57.745Z,9.15
2018-10-19T06:44:03.729Z,9.21
2018-10-19T06:45:09.183Z,9.26
2018-10-19T06:46:14.792Z,9.29
2018-10-19T06:47:20.941Z,9.27
2018-10-19T06:48:26.577Z,9.33
2018-10-19T06:49:32.466Z,9.32
2018-10-19T06:50:38.408Z,9.31
2018-10-19T06:51:44.378Z,9.43
2018-10-19T06:52:50.274Z,9.40
2018-10-19T06:53:56.439Z,9.40
2018-10-19T06:55:02.375Z,9.40
2018-10-19T06:56:08.347Z,9.41
2018-10-19T06:57:14.413Z,9.38
2018-10-19T06:58:20.618Z,9.38
2018-10-19T06:59:26.567Z,9.31
2018-10-19T07:00:32.690Z,9.27
2018-10-19T07:01:38.605Z,9.25
2018-10-19T07:02:45.851Z,9.26
2018-10-19T07:04:04.440Z,9.33
2018-10-19T07:05:10.164Z,9.34
2018-10-19T07:06:16.249Z,9.35
2018-10-19T07:07:22.348Z,9.38
2018-10-19T07:08:27.979Z,9.38
2018-10-19T07:09:34.054Z,9.49
2018-10-19T07:10:39.984Z,9.53
2018-10-19T07:11:45.893Z,9.49
2018-10-19T07:12:51.838Z,9.68
2018-10-19T07:13:57.554Z,9.49
2018-10-19T07:15:03.307Z,9.42
2018-10-19T07:16:09.259Z,9.47
2018-10-19T07:17:15.333Z,9.47
2018-10-19T07:18:21.334Z,9.52
2018-10-19T07:19:27.249Z,9.42
2018-10-19T07:20:33.178Z,9.44
2018-10-19T07:21:39.178Z,9.48
2018-10-19T07:22:44.904Z,9.43
2018-10-19T07:23:54.514Z,9.42
2018-10-19T07:25:00.449Z,9.45
2018-10-19T07:26:06.146Z,9.52
2018-10-19T07:27:12.216Z,9.51
2018-10-19T07:28:18.406Z,9.50
2018-10-19T07:29:24.325Z,9.47
2018-10-19T07:30:30.493Z,9.57
2018-10-19T07:31:36.423Z,9.49
2018-10-19T07:32:42.304Z,9.62
2018-10-19T07:33:48.215Z,9.52
2018-10-19T07:34:53.921Z,9.46
2018-10-19T07:35:59.869Z,9.48
2018-10-19T07:37:05.769Z,9.43
2018-10-19T07:38:11.679Z,9.40
2018-10-19T07:39:17.787Z,9.37
2018-10-19T07:40:23.701Z,9.38
2018-10-19T07:41:29.621Z,9.39
2018-10-19T07:42:35.680Z,9.34
2018-10-19T07:43:41.653Z,9.29
2018-10-19T07:44:49.391Z,9.31
2018-10-19T07:45:56.935Z,9.37
2018-10-19T07:47:02.892Z,9.45
2018-10-19T07:48:09.117Z,9.63
2018-10-19T07:49:15.105Z,9.57
2018-10-19T07:50:21.019Z,9.47
2018-10-19T07:51:26.983Z,9.46
2018-10-19T07:52:32.882Z,9.43
2018-10-19T07:53:38.420Z,9.45
2018-10-19T07:54:44.307Z,9.55
2018-10-19T07:55:50.250Z,9.52
2018-10-19T07:56:56.172Z,9.51
2018-10-19T07:58:01.715Z,9.38
2018-10-19T07:59:07.650Z,9.48
2018-10-19T08:00:13.787Z,9.45
2018-10-19T08:01:20.017Z,9.46
2018-10-19T08:02:26.077Z,9.45
2018-10-19T08:03:31.984Z,9.43
2018-10-19T08:04:38.160Z,9.35
2018-10-19T08:05:44.484Z,9.33
2018-10-19T08:06:50.423Z,9.32
2018-10-19T08:07:56.370Z,9.32
2018-10-19T08:09:02.486Z,9.34
2018-10-19T08:10:07.690Z,9.36
2018-10-19T08:11:13.685Z,9.40
2018-10-19T08:12:19.765Z,9.40
2018-10-19T08:13:25.652Z,9.48
2018-10-19T08:14:31.550Z,9.41
2018-10-19T08:15:37.494Z,9.48
2018-10-19T08:16:43.457Z,9.58
2018-10-19T08:17:49.667Z,9.62
2018-10-19T08:18:55.716Z,9.60
2018-10-19T08:20:01.672Z,9.55
2018-10-19T08:21:07.793Z,9.48
2018-10-19T08:22:13.953Z,9.52
2018-10-19T08:23:19.859Z,9.62
2018-10-19T08:24:25.759Z,9.67
2018-10-19T08:25:31.648Z,9.52
2018-10-19T08:26:39.577Z,9.45
2018-10-19T08:27:46.508Z,9.48
2018-10-19T08:28:52.453Z,9.48
2018-10-19T08:29:58.802Z,9.52
2018-10-19T08:31:04.008Z,9.55
2018-10-19T08:32:10.080Z,9.63
2018-10-19T08:33:16.174Z,9.65
2018-10-19T08:34:22.071Z,9.65
2018-10-19T08:35:28.034Z,9.70
2018-10-19T08:36:33.978Z,9.84
2018-10-19T08:37:39.921Z,9.86
2018-10-19T08:38:46.019Z,9.86
2018-10-19T08:39:51.942Z,9.84
2018-10-19T08:40:57.905Z,9.84
2018-10-19T08:42:04.004Z,9.80
2018-10-19T08:43:09.989Z,9.74
2018-10-19T08:44:16.090Z,9.79
2018-10-19T08:45:21.666Z,9.84
2018-10-19T08:46:27.398Z,9.94
2018-10-19T08:47:34.504Z,9.94
2018-10-19T08:48:40.826Z,9.88
2018-10-19T08:49:46.737Z,9.79
2018-10-19T08:50:52.642Z,9.76
2018-10-19T08:51:58.580Z,9.76
2018-10-19T08:53:04.133Z,9.77
2018-10-19T08:54:10.287Z,9.75
2018-10-19T08:55:16.177Z,9.71
2018-10-19T08:56:22.113Z,9.71
2018-10-19T08:57:28.077Z,9.79
2018-10-19T08:58:34.218Z,9.81
2018-10-19T08:59:40.154Z,9.71
2018-10-19T09:00:46.076Z,9.69
2018-10-19T09:01:52.023Z,9.68
2018-10-19T09:02:57.944Z,9.73
2018-10-19T09:04:03.741Z,9.80
2018-10-19T09:05:09.858Z,9.84
2018-10-19T09:06:16.023Z,9.83
2018-10-19T09:07:22.157Z,9.92
2018-10-19T09:08:28.072Z,9.95
2018-10-19T09:09:40.066Z,9.82
2018-10-19T09:10:47.799Z,9.81
2018-10-19T09:11:54.042Z,9.71
2018-10-19T09:13:00.144Z,9.68
2018-10-19T09:14:05.372Z,9.65
2018-10-19T09:15:11.282Z,9.68
2018-10-19T09:16:17.445Z,9.65
2018-10-19T09:17:23.629Z,9.75
2018-10-19T09:18:29.595Z,9.84
2018-10-19T09:19:35.494Z,9.92
2018-10-19T09:20:41.392Z,9.97
2018-10-19T09:21:47.281Z,9.96
2018-10-19T09:22:53.273Z,9.94
2018-10-19T09:23:59.366Z,9.95
2018-10-19T09:25:04.624Z,9.88
2018-10-19T09:26:10.542Z,9.84
2018-10-19T09:27:16.550Z,9.92
2018-10-19T09:28:22.657Z,9.87
2018-10-19T09:29:28.597Z,9.96
2018-10-19T09:30:39.185Z,9.96
2018-10-19T09:31:48.701Z,9.86
2018-10-19T09:32:54.666Z,9.94
2018-10-19T09:34:01.076Z,10.02
2018-10-19T09:35:06.350Z,10.04
2018-10-19T09:36:12.339Z,9.99
2018-10-19T09:37:18.113Z,9.99
2018-10-19T09:38:24.046Z,10.03
2018-10-19T09:39:29.968Z,10.06
2018-10-19T09:40:35.874Z,10.10
2018-10-19T09:41:41.787Z,10.09
2018-10-19T09:42:47.767Z,10.11
2018-10-19T09:43:53.653Z,10.11
2018-10-19T09:44:59.867Z,10.17
2018-10-19T09:46:06.024Z,10.26
2018-10-19T09:47:12.170Z,10.25
2018-10-19T09:48:17.780Z,10.24
2018-10-19T09:49:23.731Z,10.28
2018-10-19T09:50:29.655Z,10.35
2018-10-19T09:51:35.547Z,10.22
2018-10-19T09:52:41.462Z,10.32
2018-10-19T09:53:47.374Z,10.43
2018-10-19T09:54:53.315Z,10.47
2018-10-19T09:55:59.259Z,10.60
2018-10-19T09:57:05.036Z,10.57
2018-10-19T09:58:11.176Z,10.44
2018-10-19T09:59:17.168Z,10.46
2018-10-19T10:00:22.790Z,10.50
2018-10-19T10:01:28.935Z,10.43
2018-10-19T10:02:34.876Z,10.51
2018-10-19T10:03:40.783Z,10.58
2018-10-19T10:04:46.758Z,10.54
2018-10-19T10:05:52.790Z,10.61
2018-10-19T10:06:58.873Z,10.68
2018-10-19T10:08:04.260Z,10.69
2018-10-19T10:09:09.939Z,10.74
2018-10-19T10:10:16.031Z,10.76
2018-10-19T10:11:21.981Z,10.78
2018-10-19T10:12:27.932Z,10.75
2018-10-19T10:13:33.896Z,10.75
2018-10-19T10:14:39.811Z,10.84
2018-10-19T10:15:45.798Z,10.88
2018-10-19T10:16:51.370Z,10.86
2018-10-19T10:17:57.306Z,10.91
2018-10-19T10:19:02.921Z,10.91
2018-10-19T10:20:08.754Z,10.99
2018-10-19T10:21:14.652Z,11.00
2018-10-19T10:22:20.730Z,11.06
2018-10-19T10:23:26.846Z,11.05
2018-10-19T10:24:32.568Z,10.95
2018-10-19T10:25:38.616Z,10.98
2018-10-19T10:26:44.697Z,11.05
2018-10-19T10:27:50.965Z,11.12
2018-10-19T10:28:57.041Z,11.16
2018-10-19T10:30:02.806Z,11.12
2018-10-19T10:31:08.854Z,11.19
2018-10-19T10:32:15.215Z,11.25
2018-10-19T10:33:21.826Z,11.25
2018-10-19T10:34:27.903Z,11.25
2018-10-19T10:35:34.016Z,11.28
2018-10-19T10:36:39.943Z,11.21
2018-10-19T10:37:45.855Z,11.10
2018-10-19T10:38:51.784Z,11.17
2018-10-19T10:39:57.851Z,11.27
2018-10-19T10:41:03.966Z,11.39
2018-10-19T10:42:09.573Z,11.36
2018-10-19T10:43:15.900Z,11.34
2018-10-19T10:44:21.934Z,11.41
2018-10-19T10:45:27.473Z,11.46
2018-10-19T10:46:33.388Z,11.49
2018-10-19T10:47:39.301Z,11.52
2018-10-19T10:48:45.236Z,11.54
2018-10-19T10:49:51.168Z,11.57
2018-10-19T10:50:56.870Z,11.70
2018-10-19T10:52:02.800Z,11.74
2018-10-19T10:53:08.950Z,11.76
2018-10-19T10:54:14.869Z,11.86
2018-10-19T10:55:22.065Z,11.89
2018-10-19T10:56:27.988Z,11.95
2018-10-19T10:57:34.094Z,11.81
2018-10-19T10:58:40.247Z,11.73
2018-10-19T10:59:46.303Z,11.99
2018-10-19T11:00:52.432Z,11.93
2018-10-19T11:01:58.528Z,11.97
2018-10-19T11:03:04.624Z,11.91
2018-10-19T11:04:10.824Z,11.67
2018-10-19T11:05:16.912Z,11.73
2018-10-19T11:06:22.834Z,11.84
2018-10-19T11:07:28.928Z,12.03
2018-10-19T11:08:34.915Z,11.96
2018-10-19T11:09:40.989Z,12.06
2018-10-19T11:10:46.385Z,12.23
2018-10-19T11:11:52.474Z,12.01
2018-10-19T11:12:58.625Z,11.90
2018-10-19T11:14:04.549Z,12.00
2018-10-19T11:15:10.223Z,12.08
2018-10-19T11:16:16.278Z,12.11
2018-10-19T11:17:22.533Z,12.20
2018-10-19T11:18:28.644Z,12.29
2018-10-19T11:19:34.967Z,12.38
2018-10-19T11:20:41.015Z,12.36
2018-10-19T11:21:47.126Z,12.35
2018-10-19T11:22:53.221Z,12.46
2018-10-19T11:23:59.360Z,12.58
2018-10-19T11:25:05.582Z,12.53
2018-10-19T11:26:11.863Z,12.46
2018-10-19T11:27:17.960Z,12.39
2018-10-19T11:28:24.069Z,12.41
2018-10-19T11:29:30.217Z,12.45
2018-10-19T11:30:36.003Z,12.39
2018-10-19T11:31:42.189Z,12.32
2018-10-19T11:32:48.301Z,12.37
2018-10-19T11:33:54.487Z,12.33
2018-10-19T11:35:00.585Z,12.35
2018-10-19T11:36:06.494Z,12.50
2018-10-19T11:37:19.596Z,12.53
2018-10-19T11:38:25.721Z,12.56
2018-10-19T11:39:31.744Z,12.68
2018-10-19T11:40:37.975Z,12.47
2018-10-19T11:41:43.945Z,12.43
2018-10-19T11:42:50.047Z,12.41
2018-10-19T11:43:56.388Z,12.40
2018-10-19T11:45:02.686Z,12.42
2018-10-19T11:46:08.977Z,12.43
2018-10-19T11:47:14.802Z,12.50
2018-10-19T11:48:21.177Z,12.53
2018-10-19T11:49:27.188Z,12.87
2018-10-19T11:50:32.949Z,12.93
2018-10-19T11:51:38.962Z,12.88
2018-10-19T11:52:44.985Z,13.04
2018-10-19T11:53:51.072Z,12.91
2018-10-19T11:54:57.234Z,13.01
2018-10-19T11:56:03.307Z,13.22
2018-10-19T11:57:09.446Z,13.14
2018-10-19T11:58:15.794Z,13.05
2018-10-19T11:59:23.922Z,12.96
2018-10-19T12:00:29.997Z,13.09
2018-10-19T12:01:36.134Z,13.28
2018-10-19T12:02:42.002Z,13.41
2018-10-19T12:03:48.014Z,13.64
2018-10-19T12:04:54.125Z,13.26
2018-10-19T12:06:00.237Z,13.27
2018-10-19T12:07:06.003Z,13.43
2018-10-19T12:08:12.233Z,13.59
2018-10-19T12:09:18.575Z,13.42
2018-10-19T12:10:24.648Z,13.22
2018-10-19T12:11:30.782Z,13.23
2018-10-19T12:12:37.054Z,13.19
2018-10-19T12:13:43.174Z,13.46
2018-10-19T12:14:49.311Z,13.33
2018-10-19T12:15:55.674Z,13.27
2018-10-19T12:17:01.899Z,13.29
2018-10-19T12:18:08.011Z,13.18
2018-10-19T12:19:21.074Z,13.10
2018-10-19T12:20:26.977Z,13.17
2018-10-19T12:21:33.030Z,13.22
2018-10-19T12:22:38.740Z,13.30
2018-10-19T12:23:45.094Z,13.42
2018-10-19T12:24:51.202Z,13.40
2018-10-19T12:25:56.972Z,13.38
2018-10-19T12:27:02.974Z,13.50
2018-10-19T12:28:08.900Z,13.61
2018-10-19T12:29:15.246Z,13.64
2018-10-19T12:30:21.325Z,13.45
2018-10-19T12:31:27.420Z,13.48
2018-10-19T12:32:33.564Z,13.61
2018-10-19T12:33:39.860Z,13.78
2018-10-19T12:34:46.003Z,13.95
2018-10-19T12:35:52.103Z,13.83
2018-10-19T12:36:58.181Z,13.78
2018-10-19T12:38:03.723Z,13.75
2018-10-19T12:39:09.992Z,13.54
2018-10-19T12:40:15.881Z,13.45
2018-10-19T12:41:21.885Z,13.51
2018-10-19T12:42:27.993Z,13.58
2018-10-19T12:43:34.054Z,13.69
2018-10-19T12:44:40.139Z,13.84
2018-10-19T12:47:28.609Z,14.01
2018-10-19T12:48:35.164Z,13.85
2018-10-19T12:49:41.076Z,13.79
2018-10-19T12:50:47.126Z,13.79
2018-10-19T12:51:53.070Z,13.83
2018-10-19T12:52:59.177Z,13.91
2018-10-19T12:54:04.682Z,14.08
2018-10-19T12:55:10.299Z,13.97
2018-10-19T12:56:16.523Z,14.09
2018-10-19T12:57:23.468Z,14.00
2018-10-19T12:58:29.734Z,13.79
2018-10-19T12:59:35.845Z,13.98
2018-10-19T13:00:41.945Z,14.14
2018-10-19T13:01:48.045Z,14.29
2018-10-19T13:02:54.161Z,14.08
2018-10-19T13:04:00.277Z,14.00
2018-10-19T13:05:05.703Z,14.03
2018-10-19T13:06:11.758Z,14.08
2018-10-19T13:07:17.645Z,14.02
2018-10-19T13:08:23.891Z,14.13
2018-10-19T13:09:29.986Z,14.36
2018-10-19T13:10:36.115Z,14.72
2018-10-19T13:11:42.195Z,14.74
2018-10-19T13:12:48.199Z,14.38
2018-10-19T13:13:53.922Z,14.08
2018-10-19T13:15:00.074Z,14.24
2018-10-19T13:16:05.522Z,14.55
2018-10-19T13:17:11.252Z,14.57
2018-10-19T13:18:17.343Z,14.66
2018-10-19T13:19:23.445Z,14.79
2018-10-19T13:20:30.469Z,14.57
2018-10-19T13:21:36.227Z,14.31
2018-10-19T13:22:47.680Z,14.25
2018-10-19T13:23:53.950Z,14.15
2018-10-19T13:25:00.034Z,14.13
2018-10-19T13:26:06.306Z,14.13
2018-10-19T13:27:12.485Z,14.22
2018-10-19T13:28:19.021Z,14.16
2018-10-19T13:29:25.178Z,14.02
2018-10-19T13:30:31.275Z,13.97
2018-10-19T13:31:37.008Z,14.03
2018-10-19T13:32:43.070Z,14.07
2018-10-19T13:33:49.141Z,14.05
2018-10-19T13:34:55.295Z,14.08
2018-10-19T13:36:01.446Z,14.07
2018-10-19T13:37:07.674Z,14.10
2018-10-19T13:38:13.808Z,14.05
2018-10-19T13:39:19.885Z,14.00
2018-10-19T13:40:26.042Z,13.94
2018-10-19T13:41:32.336Z,13.98
2018-10-19T13:42:38.618Z,13.94
2018-10-19T13:43:44.666Z,13.98
2018-10-19T13:44:50.731Z,14.04
2018-10-19T13:45:56.566Z,14.35
2018-10-19T13:47:02.769Z,14.31
2018-10-19T13:48:09.077Z,14.18
2018-10-19T13:49:15.157Z,14.27
2018-10-19T13:50:21.398Z,14.36
2018-10-19T13:51:27.683Z,14.42
2018-10-19T13:52:33.858Z,14.63
2018-10-19T13:53:40.107Z,14.99
2018-10-19T13:54:46.212Z,15.07
2018-10-19T13:55:52.296Z,14.94
2018-10-19T13:56:58.457Z,14.65
2018-10-19T13:58:04.398Z,14.38
2018-10-19T13:59:10.533Z,14.35
2018-10-19T14:00:16.748Z,14.36
2018-10-19T14:01:22.873Z,14.33
2018-10-19T14:02:28.972Z,14.40
2018-10-19T14:03:35.079Z,14.41
2018-10-19T14:04:41.188Z,14.52
2018-10-19T14:05:47.637Z,14.47
2018-10-19T14:06:53.893Z,14.55
2018-10-19T14:08:00.014Z,14.66
2018-10-19T14:09:05.794Z,14.65
2018-10-19T14:10:11.969Z,15.04
2018-10-19T14:11:18.073Z,15.19
2018-10-19T14:12:24.138Z,15.20
2018-10-19T14:13:30.342Z,15.18
2018-10-19T14:14:36.450Z,14.79
2018-10-19T14:15:42.526Z,14.52
2018-10-19T14:16:48.611Z,14.40
2018-10-19T14:17:54.682Z,14.29
2018-10-19T14:19:00.659Z,14.22
2018-10-19T14:20:06.234Z,14.17
2018-10-19T14:21:12.367Z,14.18
2018-10-19T14:22:18.581Z,14.28
2018-10-19T14:23:24.691Z,14.44